Historique des mesures à Cassis (13260), France
Quotidien Résumé Fevrier 20, 2018 Unités:  Métrique/US    US   Métrique
« Précédent (Jour)
Suivant (Jour) »
Quotidien Hebdomadaire Mensuel Annuel Période au choix
  Maximum: Minimum: Moyenne:
Température: 32 °F /  TemperatureC °C 40.6 °F /  4.8 °C 46.2 °F /  7.9 °C
Point de rosée: 32 °F /  DewpointC °C 24.8 °F /  -4.0 °C 28 °F /  -2.2 °C
Humidité: Humidity % 41 % 46 %
Vitesse du vent: WindSpeedKMH mph /  0 km/h - 7 mph /  11.3 km/h
Rafales: WindSpeedGustKMH mph /  0 km/h - -
Vent:- - West
Pression: 0 in /  PressurehPa hPa 29.6 in /  1002.3 hPa -
Précipitations: 0 in /  0.0 mm    
Historical Graphs
 
 
Mesures pour : Fevrier 20, 2018
Heure Temperature Point de rosée Pression Vent Vitesse du vent Rafales Humidité Pluie (par heure) Conditions
32 °F /  TemperatureC °C 32 °F /  DewpointC °C 0 in /  PressurehPa hPa Calm     Humidity % 0 in /  HourlyPrecipMM mm SoftwareType W/m2
00:12 44.4 °F /  6.9 °C 24.8 °F /  -4.0 °C 29.8 in /  1007.7 hPa NNW 2.9 mph /  4.7 km/h 5.0 mph /  8 km/h 46 % 0 in /  0.0 mm open2300-1.11 W/m2
01:12 43.7 °F /  6.5 °C 25.2 °F /  -3.8 °C 29.7 in /  1007.3 hPa WNW 13.0 mph /  20.9 km/h 14.8 mph /  23.8 km/h 48 % 0 in /  0.0 mm open2300-1.11 W/m2
02:12 42.3 °F /  5.7 °C 25.3 °F /  -3.7 °C 29.7 in /  1006.7 hPa WNW 7.2 mph /  11.6 km/h 7.2 mph /  11.6 km/h 51 % 0 in /  0.0 mm open2300-1.11 W/m2
03:12 41.5 °F /  5.3 °C 26.1 °F /  -3.3 °C 29.7 in /  1006.7 hPa WNW 4.7 mph /  7.6 km/h 5.0 mph /  8 km/h 54 % 0 in /  0.0 mm open2300-1.11 W/m2
04:12 42.4 °F /  5.8 °C 26.1 °F /  -3.3 °C 29.7 in /  1006.0 hPa WNW 1.4 mph /  2.3 km/h 4.3 mph /  6.9 km/h 52 % 0 in /  0.0 mm open2300-1.11 W/m2
05:12 41.9 °F /  5.5 °C 25.9 °F /  -3.4 °C 29.7 in /  1005.6 hPa NNW 1.8 mph /  2.9 km/h 1.8 mph /  2.9 km/h 53 % 0 in /  0.0 mm open2300-1.11 W/m2
06:12 41.5 °F /  5.3 °C 26.1 °F /  -3.3 °C 29.7 in /  1005.3 hPa Calm     54 % 0 in /  0.0 mm open2300-1.11 W/m2
07:12 40.6 °F /  4.8 °C 26.4 °F /  -3.1 °C 29.7 in /  1005.0 hPa NNE 2.6 mph /  4.2 km/h 2.9 mph /  4.7 km/h 57 % 0 in /  0.0 mm open2300-1.11 W/m2
08:12 40.8 °F /  4.9 °C 26.2 °F /  -3.2 °C 29.7 in /  1005.3 hPa ENE 1.4 mph /  2.3 km/h 1.4 mph /  2.3 km/h 56 % 0 in /  0.0 mm open2300-1.11 W/m2
09:12 43.3 °F /  6.3 °C 27.9 °F /  -2.3 °C 29.7 in /  1005.3 hPa Calm     54 % 0 in /  0.0 mm open2300-1.11 W/m2
10:12 46.9 °F /  8.3 °C 27.7 °F /  -2.4 °C 29.7 in /  1005.0 hPa WNW 6.4 mph /  10.3 km/h 7.2 mph /  11.6 km/h 47 % 0 in /  0.0 mm open2300-1.11 W/m2
11:12 49.1 °F /  9.5 °C 27.3 °F /  -2.6 °C 29.7 in /  1004.6 hPa WNW 16.6 mph /  26.7 km/h 16.6 mph /  26.7 km/h 43 % 0 in /  0.0 mm open2300-1.11 W/m2
12:12 52 °F /  11.1 °C 29.5 °F /  -1.4 °C 29.6 in /  1003.9 hPa NW 9.3 mph /  15 km/h 9.3 mph /  15 km/h 42 % 0 in /  0.0 mm open2300-1.11 W/m2
13:12 53.8 °F /  12.1 °C 30.6 °F /  -0.8 °C 29.6 in /  1003.6 hPa WNW 11.1 mph /  17.9 km/h 11.1 mph /  17.9 km/h 41 % 0 in /  0.0 mm open2300-1.11 W/m2
14:12 54.3 °F /  12.4 °C 32.2 °F /  0.1 °C 29.6 in /  1002.9 hPa West 11.6 mph /  18.7 km/h 12.2 mph /  19.6 km/h 43 % 0 in /  0.0 mm open2300-1.11 W/m2
15:12 53.8 °F /  12.1 °C 32.7 °F /  0.4 °C 29.6 in /  1002.3 hPa West 15.4 mph /  24.8 km/h 15.4 mph /  24.8 km/h 45 % 0 in /  0.0 mm open2300-1.11 W/m2
16:12 52.7 °F /  11.5 °C 31.3 °F /  -0.4 °C 29.6 in /  1002.6 hPa West 3.5 mph /  5.6 km/h 9.3 mph /  15 km/h 44 % 0 in /  0.0 mm open2300-1.11 W/m2
17:12 52.9 °F /  11.6 °C 30.9 °F /  -0.6 °C 29.6 in /  1002.6 hPa WNW 8.7 mph /  14 km/h 8.7 mph /  14 km/h 43 % 0 in /  0.0 mm open2300-1.11 W/m2
18:12 50.2 °F /  10.1 °C 30 °F /  -1.1 °C 29.6 in /  1002.9 hPa WNW 8.7 mph /  14 km/h 8.7 mph /  14 km/h 46 % 0 in /  0.0 mm open2300-1.11 W/m2
19:12 48.9 °F /  9.4 °C 28.9 °F /  -1.7 °C 29.6 in /  1002.9 hPa West 13.0 mph /  20.9 km/h 14.3 mph /  23 km/h 46 % 0 in /  0.0 mm open2300-1.11 W/m2
20:12 47.7 °F /  8.7 °C 27.1 °F /  -2.7 °C 29.6 in /  1002.9 hPa NW 12.2 mph /  19.6 km/h 31.4 mph /  50.5 km/h 45 % 0 in /  0.0 mm open2300-1.11 W/m2
21:12 47.1 °F /  8.4 °C 27.1 °F /  -2.7 °C 29.6 in /  1002.9 hPa WNW 9.7 mph /  15.6 km/h 14.8 mph /  23.8 km/h 46 % 0 in /  0.0 mm open2300-1.11 W/m2
23:12 45.5 °F /  7.5 °C 27.3 °F /  -2.6 °C 29.6 in /  1003.6 hPa NNW 5.8 mph /  9.3 km/h 5.8 mph /  9.3 km/h 49 % 0 in /  0.0 mm open2300-1.11 W/m2
Observations météo à CASSIS
WU-History script by Weather Underground - 1 mb